Time;durP1;ratioP1;P1;durP2;ratioP2;P2;SDS_P1;SDS_P2;PMS_P1;PMS_P2;Temp;Humidity;BMP_temperature;BMP_pressure;BME280_temperature;BME280_humidity;BME280_pressure;Samples;Min_cycle;Max_cycle;Signal;HPM_P1;HPM_P2
2023/03/07 00:01:42;;;;;;;49.78;19.70;;;;;;;;;;6322173;28;20048;-60
2023/03/07 00:04:45;;;;;;;49.15;19.35;;;;;;;;;;6321224;28;20143;-63
2023/03/07 00:07:45;;;;;;;43.33;18.35;;;;;;;;;;6322168;28;20086;-61
2023/03/07 00:10:46;;;;;;;50.38;20.00;;;;;;;;;;6317806;28;20058;-67
2023/03/07 00:13:46;;;;;;;53.10;21.27;;;;;;;;;;6320183;28;20086;-60
2023/03/07 00:16:50;;;;;;;54.42;21.70;;;;;;;;;;6320275;28;20117;-68
2023/03/07 00:19:51;;;;;;;52.70;21.67;;;;;;;;;;6322011;28;20440;-67
2023/03/07 00:22:52;;;;;;;49.03;20.98;;;;;;;;;;6317089;28;20131;-60
2023/03/07 00:26:00;;;;;;;53.05;20.45;;;;;;;;;;6338479;28;20528;-60
2023/03/07 00:29:01;;;;;;;51.63;19.55;;;;;;;;;;6323611;28;20044;-60
2023/03/07 00:32:02;;;;;;;49.35;19.85;;;;;;;;;;6318747;28;20055;-58
2023/03/07 00:35:02;;;;;;;49.70;19.95;;;;;;;;;;6330661;28;20069;-60
2023/03/07 00:38:03;;;;;;;49.10;20.15;;;;;;;;;;6326894;28;20482;-60
2023/03/07 00:41:07;;;;;;;47.58;18.85;;;;;;;;;;6320975;28;20032;-60
2023/03/07 00:44:08;;;;;;;54.90;20.45;;;;;;;;;;6318423;28;20063;-61
2023/03/07 00:47:09;;;;;;;53.75;22.27;;;;;;;;;;6316726;28;20769;-61
2023/03/07 00:50:09;;;;;;;47.60;20.08;;;;;;;;;;6317741;28;20044;-61
2023/03/07 00:53:10;;;;;;;50.40;20.05;;;;;;;;;;6319302;28;20055;-59
2023/03/07 00:56:14;;;;;;;46.83;19.13;;;;;;;;;;6317133;28;20071;-59
2023/03/07 00:59:15;;;;;;;57.55;22.02;;;;;;;;;;6318787;28;20056;-60
2023/03/07 01:02:15;;;;;;;59.55;21.77;;;;;;;;;;6320373;28;20040;-60
2023/03/07 01:05:16;;;;;;;51.13;21.40;;;;;;;;;;6319506;28;20452;-60
2023/03/07 01:08:18;;;;;;;48.70;20.55;;;;;;;;;;6316040;28;20036;-59
2023/03/07 01:11:18;;;;;;;50.92;20.63;;;;;;;;;;6319995;28;20047;-60
2023/03/07 01:14:19;;;;;;;46.10;20.85;;;;;;;;;;6325117;28;20907;-67
2023/03/07 01:17:20;;;;;;;52.13;22.45;;;;;;;;;;6323300;28;20047;-60
2023/03/07 01:20:20;;;;;;;46.20;19.23;;;;;;;;;;6321881;28;20048;-62
2023/03/07 01:23:21;;;;;;;48.85;20.77;;;;;;;;;;6324304;28;20035;-61
2023/03/07 01:26:28;;;;;;;52.45;20.65;;;;;;;;;;6331507;28;20047;-60
2023/03/07 01:29:28;;;;;;;50.83;20.67;;;;;;;;;;6327676;28;20060;-60
2023/03/07 01:32:29;;;;;;;44.78;18.10;;;;;;;;;;6322429;28;20032;-61
2023/03/07 01:35:35;;;;;;;48.47;19.17;;;;;;;;;;6326522;28;20078;-61
2023/03/07 01:38:36;;;;;;;47.75;18.75;;;;;;;;;;6326181;28;20047;-60
2023/03/07 01:41:37;;;;;;;45.67;18.70;;;;;;;;;;6330887;28;20040;-60
2023/03/07 01:45:01;;;;;;;53.78;19.20;;;;;;;;;;6323053;28;20047;-63
2023/03/07 01:48:02;;;;;;;46.67;19.90;;;;;;;;;;6325139;28;20126;-61
2023/03/07 01:51:03;;;;;;;44.38;19.00;;;;;;;;;;6323801;28;20460;-60
2023/03/07 01:54:06;;;;;;;48.13;19.02;;;;;;;;;;6326907;28;20036;-60
2023/03/07 01:57:07;;;;;;;47.28;19.20;;;;;;;;;;6342132;28;20051;-61
2023/03/07 02:00:12;;;;;;;44.05;20.17;;;;;;;;;;6327290;28;20039;-61
2023/03/07 02:03:28;;;;;;;51.97;22.27;;;;;;;;;;6338113;28;20575;-61
2023/03/07 02:06:30;;;;;;;49.42;18.73;;;;;;;;;;6330667;28;20520;-60
2023/03/07 02:09:33;;;;;;;44.70;18.80;;;;;;;;;;6322928;28;20383;-59
2023/03/07 02:12:34;;;;;;;47.70;18.27;;;;;;;;;;6329017;28;20052;-60
2023/03/07 02:15:35;;;;;;;52.08;20.23;;;;;;;;;;6322215;28;20071;-60
2023/03/07 02:18:44;;;;;;;47.47;19.17;;;;;;;;;;6321766;28;20047;-60
2023/03/07 02:22:02;;;;;;;51.00;21.95;;;;;;;;;;6335398;28;20040;-60
2023/03/07 02:25:37;;;;;;;54.15;21.65;;;;;;;;;;6323378;28;20039;-60
2023/03/07 02:28:41;;;;;;;50.75;20.65;;;;;;;;;;6322907;28;20075;-59
2023/03/07 02:31:42;;;;;;;48.92;19.58;;;;;;;;;;6325295;28;20496;-62
2023/03/07 02:34:42;;;;;;;49.35;19.88;;;;;;;;;;6321819;28;20047;-60
2023/03/07 02:37:46;;;;;;;46.10;19.30;;;;;;;;;;6322375;28;20052;-60
2023/03/07 02:40:46;;;;;;;48.20;19.63;;;;;;;;;;6322343;28;20402;-59
2023/03/07 02:43:47;;;;;;;46.45;17.92;;;;;;;;;;6320716;28;20047;-62
2023/03/07 02:46:47;;;;;;;48.47;19.35;;;;;;;;;;6322066;28;20066;-66
2023/03/07 02:49:48;;;;;;;44.13;18.55;;;;;;;;;;6321994;28;20055;-60
2023/03/07 02:52:48;;;;;;;43.65;18.45;;;;;;;;;;6331104;28;20052;-61
2023/03/07 02:55:49;;;;;;;43.45;18.17;;;;;;;;;;6334959;28;20047;-59
2023/03/07 02:58:50;;;;;;;38.85;16.85;;;;;;;;;;6328684;28;20040;-60
2023/03/07 03:01:50;;;;;;;43.03;16.77;;;;;;;;;;6320823;28;20540;-61
2023/03/07 03:04:51;;;;;;;43.05;18.38;;;;;;;;;;6332926;28;20084;-66
2023/03/07 03:07:51;;;;;;;41.83;18.30;;;;;;;;;;6336355;28;20051;-60
2023/03/07 03:10:53;;;;;;;39.75;16.63;;;;;;;;;;6321860;28;20044;-61
2023/03/07 03:13:54;;;;;;;44.15;16.45;;;;;;;;;;6321252;28;20042;-60
2023/03/07 03:16:55;;;;;;;42.55;17.35;;;;;;;;;;6334542;28;20055;-61
2023/03/07 03:19:55;;;;;;;41.25;17.77;;;;;;;;;;6331908;28;20043;-59
2023/03/07 03:22:56;;;;;;;41.35;17.52;;;;;;;;;;6320475;28;20043;-61
2023/03/07 03:25:58;;;;;;;40.05;17.83;;;;;;;;;;6317450;28;20075;-59
2023/03/07 03:28:59;;;;;;;39.95;17.58;;;;;;;;;;6320157;28;20055;-62
2023/03/07 03:32:01;;;;;;;42.60;18.27;;;;;;;;;;6313008;28;20040;-61
2023/03/07 03:35:01;;;;;;;39.20;17.30;;;;;;;;;;6315661;28;20047;-60
2023/03/07 03:38:02;;;;;;;47.60;18.85;;;;;;;;;;6320827;28;20095;-60
2023/03/07 03:41:07;;;;;;;35.75;16.27;;;;;;;;;;6318878;28;20714;-60
2023/03/07 03:44:08;;;;;;;41.38;18.38;;;;;;;;;;6319988;28;20422;-64
2023/03/07 03:47:09;;;;;;;45.83;17.42;;;;;;;;;;6322065;28;20056;-62
2023/03/07 03:50:10;;;;;;;41.55;18.02;;;;;;;;;;6318979;28;20082;-60
2023/03/07 03:53:10;;;;;;;42.63;18.48;;;;;;;;;;6320790;28;20047;-61
2023/03/07 03:56:14;;;;;;;39.42;16.20;;;;;;;;;;6336225;28;20052;-60
2023/03/07 03:59:14;;;;;;;43.25;19.25;;;;;;;;;;6327636;28;20040;-60
2023/03/07 04:02:15;;;;;;;39.85;17.13;;;;;;;;;;6320960;28;20399;-60
2023/03/07 04:05:15;;;;;;;33.97;15.15;;;;;;;;;;6320761;28;20044;-58
2023/03/07 04:08:16;;;;;;;35.17;16.05;;;;;;;;;;6321669;28;20081;-59
2023/03/07 04:11:17;;;;;;;40.13;16.30;;;;;;;;;;6324916;28;20040;-59
2023/03/07 04:14:18;;;;;;;37.63;15.15;;;;;;;;;;6327826;28;20518;-59
2023/03/07 04:17:18;;;;;;;37.28;16.48;;;;;;;;;;6319400;28;20058;-60
2023/03/07 04:20:20;;;;;;;35.40;15.25;;;;;;;;;;6320544;28;20047;-60
2023/03/07 04:23:22;;;;;;;43.00;16.45;;;;;;;;;;6326701;28;20044;-60
2023/03/07 04:26:23;;;;;;;39.20;15.93;;;;;;;;;;6322704;28;20046;-60
2023/03/07 04:29:23;;;;;;;42.17;16.60;;;;;;;;;;6321965;28;20629;-60
2023/03/07 04:32:24;;;;;;;40.67;16.80;;;;;;;;;;6322687;28;20421;-60
2023/03/07 04:35:24;;;;;;;39.47;15.63;;;;;;;;;;6338699;28;20055;-60
2023/03/07 04:38:25;;;;;;;40.42;16.08;;;;;;;;;;6321198;28;20060;-60
2023/03/07 04:41:26;;;;;;;41.33;16.58;;;;;;;;;;6318842;28;20056;-59
2023/03/07 04:44:26;;;;;;;41.85;16.42;;;;;;;;;;6319630;28;20497;-60
2023/03/07 04:47:27;;;;;;;35.60;15.15;;;;;;;;;;6322487;28;20051;-60
2023/03/07 04:50:27;;;;;;;37.42;15.50;;;;;;;;;;6325095;28;20032;-59
2023/03/07 04:53:28;;;;;;;40.30;15.95;;;;;;;;;;6344841;28;20036;-60
2023/03/07 04:56:29;;;;;;;37.90;16.70;;;;;;;;;;6336719;28;20092;-61
2023/03/07 04:59:29;;;;;;;39.45;16.80;;;;;;;;;;6335992;28;20482;-60
2023/03/07 05:02:30;;;;;;;36.75;16.20;;;;;;;;;;6333393;28;20047;-60
2023/03/07 05:05:30;;;;;;;35.58;16.08;;;;;;;;;;6336086;28;20044;-60
2023/03/07 05:08:31;;;;;;;41.28;17.17;;;;;;;;;;6338114;28;20081;-60
2023/03/07 05:11:32;;;;;;;63.30;26.35;;;;;;;;;;6342696;28;20047;-60
2023/03/07 05:14:32;;;;;;;47.55;20.85;;;;;;;;;;6325111;28;20075;-60
2023/03/07 05:17:33;;;;;;;40.05;18.48;;;;;;;;;;6322620;28;20048;-60
2023/03/07 05:20:34;;;;;;;38.35;16.17;;;;;;;;;;6322048;28;20529;-57
2023/03/07 05:23:34;;;;;;;44.85;17.00;;;;;;;;;;6321378;28;20044;-60
2023/03/07 05:26:35;;;;;;;39.38;16.40;;;;;;;;;;6331186;28;20040;-60
2023/03/07 05:29:36;;;;;;;33.05;14.52;;;;;;;;;;6322565;28;20036;-59
2023/03/07 05:32:36;;;;;;;39.42;16.45;;;;;;;;;;6325658;27;20040;-59
2023/03/07 05:35:38;;;;;;;39.58;16.83;;;;;;;;;;6321735;28;20410;-60
2023/03/07 05:38:38;;;;;;;44.35;17.08;;;;;;;;;;6321692;28;20047;-59
2023/03/07 05:41:39;;;;;;;42.03;17.98;;;;;;;;;;6323135;28;20077;-60
2023/03/07 05:44:40;;;;;;;40.88;16.45;;;;;;;;;;6321734;28;21383;-60
2023/03/07 05:47:41;;;;;;;36.88;15.23;;;;;;;;;;6320295;28;20048;-60
2023/03/07 05:50:42;;;;;;;33.90;15.55;;;;;;;;;;6321097;28;21126;-60
2023/03/07 05:53:43;;;;;;;43.72;20.45;;;;;;;;;;6321052;28;20137;-59
2023/03/07 05:56:44;;;;;;;37.88;15.68;;;;;;;;;;6325685;28;20055;-61
2023/03/07 05:59:44;;;;;;;36.63;16.38;;;;;;;;;;6325011;28;20046;-60
2023/03/07 06:02:45;;;;;;;36.45;15.43;;;;;;;;;;6319840;28;20104;-60
2023/03/07 06:05:49;;;;;;;36.25;14.13;;;;;;;;;;6326652;27;20053;-61
2023/03/07 06:08:49;;;;;;;34.95;14.38;;;;;;;;;;6325696;28;20093;-61
2023/03/07 06:11:50;;;;;;;35.72;14.35;;;;;;;;;;6319296;28;20040;-60
2023/03/07 06:14:51;;;;;;;39.63;16.77;;;;;;;;;;6317877;28;20116;-60
2023/03/07 06:17:51;;;;;;;37.75;16.27;;;;;;;;;;6319221;28;20048;-60
2023/03/07 06:20:57;;;;;;;38.55;15.80;;;;;;;;;;6318675;28;20131;-61
2023/03/07 06:23:58;;;;;;;36.25;16.55;;;;;;;;;;6321540;28;20044;-60
2023/03/07 06:26:58;;;;;;;36.63;16.60;;;;;;;;;;6319032;28;20501;-60
2023/03/07 06:29:59;;;;;;;33.40;14.98;;;;;;;;;;6320274;28;20033;-60
2023/03/07 06:32:59;;;;;;;33.05;14.32;;;;;;;;;;6319589;28;20036;-59
2023/03/07 06:36:07;;;;;;;35.30;13.60;;;;;;;;;;6322738;28;20051;-60
2023/03/07 06:39:08;;;;;;;36.90;13.52;;;;;;;;;;6320114;28;20486;-60
2023/03/07 06:42:09;;;;;;;29.58;12.85;;;;;;;;;;6331904;28;20097;-61
2023/03/07 06:45:09;;;;;;;36.50;13.05;;;;;;;;;;6320439;28;20135;-61
2023/03/07 06:48:10;;;;;;;30.70;13.30;;;;;;;;;;6321889;28;20392;-65
2023/03/07 06:51:11;;;;;;;32.33;14.27;;;;;;;;;;6317548;28;20451;-61
2023/03/07 06:54:11;;;;;;;37.63;13.48;;;;;;;;;;6321214;28;20035;-60
2023/03/07 06:57:12;;;;;;;29.25;13.45;;;;;;;;;;6322149;28;20036;-60
2023/03/07 07:00:14;;;;;;;30.75;13.35;;;;;;;;;;6318347;28;20073;-60
2023/03/07 07:03:16;;;;;;;33.35;14.18;;;;;;;;;;6320361;28;20478;-60
2023/03/07 07:06:16;;;;;;;28.92;13.00;;;;;;;;;;6320493;28;20048;-60
2023/03/07 07:09:17;;;;;;;29.33;12.70;;;;;;;;;;6339240;28;20054;-60
2023/03/07 07:12:18;;;;;;;31.33;14.02;;;;;;;;;;6321095;28;20041;-64
2023/03/07 07:15:19;;;;;;;29.98;13.18;;;;;;;;;;6319393;28;20170;-60
2023/03/07 07:18:20;;;;;;;32.85;13.65;;;;;;;;;;6317777;28;20048;-60
2023/03/07 07:21:20;;;;;;;30.40;13.45;;;;;;;;;;6317171;28;20050;-59
2023/03/07 07:24:22;;;;;;;28.15;11.68;;;;;;;;;;6319510;28;20601;-60
2023/03/07 07:27:23;;;;;;;28.88;12.48;;;;;;;;;;6317886;28;20688;-60
2023/03/07 07:30:23;;;;;;;34.15;12.57;;;;;;;;;;6317368;28;20047;-61
2023/03/07 07:33:24;;;;;;;29.42;12.55;;;;;;;;;;6314568;28;20052;-61
2023/03/07 07:36:24;;;;;;;25.23;11.35;;;;;;;;;;6322897;28;20055;-60
2023/03/07 07:39:25;;;;;;;25.30;11.30;;;;;;;;;;6317544;28;20074;-60
2023/03/07 07:42:26;;;;;;;27.80;11.52;;;;;;;;;;6319804;28;20044;-61
2023/03/07 07:45:26;;;;;;;27.25;11.05;;;;;;;;;;6317702;28;20047;-60
2023/03/07 07:48:27;;;;;;;27.80;11.60;;;;;;;;;;6320250;28;20054;-60
2023/03/07 07:51:27;;;;;;;30.48;12.10;;;;;;;;;;6319795;28;20056;-60
2023/03/07 07:54:28;;;;;;;29.35;12.27;;;;;;;;;;6312518;28;20048;-60
2023/03/07 07:57:29;;;;;;;26.58;11.55;;;;;;;;;;6314586;28;20467;-61
2023/03/07 08:00:30;;;;;;;28.88;11.60;;;;;;;;;;6314697;28;20052;-63
2023/03/07 08:03:31;;;;;;;26.03;11.13;;;;;;;;;;6325009;28;20126;-59
2023/03/07 08:06:31;;;;;;;26.02;11.50;;;;;;;;;;6330634;28;20310;-60
2023/03/07 08:09:33;;;;;;;27.00;11.85;;;;;;;;;;6318003;28;20394;-60
2023/03/07 08:12:34;;;;;;;28.17;12.02;;;;;;;;;;6316787;28;20569;-60
2023/03/07 08:15:34;;;;;;;26.88;10.20;;;;;;;;;;6314439;28;20142;-60
2023/03/07 08:18:35;;;;;;;24.30;10.60;;;;;;;;;;6318457;28;20031;-60
2023/03/07 08:21:36;;;;;;;25.80;10.80;;;;;;;;;;6317710;28;20102;-61
2023/03/07 08:24:37;;;;;;;26.15;12.00;;;;;;;;;;6322215;28;20036;-60
2023/03/07 08:27:37;;;;;;;24.20;11.27;;;;;;;;;;6320333;28;20047;-60
2023/03/07 08:30:38;;;;;;;27.15;12.07;;;;;;;;;;6319178;28;20481;-60
2023/03/07 08:33:39;;;;;;;25.48;11.40;;;;;;;;;;6322761;28;20047;-60
2023/03/07 08:36:39;;;;;;;25.65;12.18;;;;;;;;;;6321699;28;20131;-60
2023/03/07 08:39:40;;;;;;;27.25;11.95;;;;;;;;;;6325056;28;20148;-60
2023/03/07 08:42:41;;;;;;;31.98;11.77;;;;;;;;;;6301426;28;20495;-61
2023/03/07 08:45:42;;;;;;;31.27;13.67;;;;;;;;;;6324868;28;20066;-61
2023/03/07 08:48:42;;;;;;;27.55;12.50;;;;;;;;;;6324683;28;20301;-60
2023/03/07 08:51:46;;;;;;;27.05;11.70;;;;;;;;;;6324025;28;20042;-61
2023/03/07 08:54:47;;;;;;;29.30;13.52;;;;;;;;;;6323078;28;20463;-60
2023/03/07 08:57:47;;;;;;;29.15;12.45;;;;;;;;;;6325934;28;20043;-60
2023/03/07 09:00:48;;;;;;;30.85;13.15;;;;;;;;;;6324065;28;20032;-60
2023/03/07 09:03:49;;;;;;;29.95;12.00;;;;;;;;;;6322396;28;20078;-61
2023/03/07 09:06:49;;;;;;;32.40;12.73;;;;;;;;;;6324199;28;20085;-61
2023/03/07 09:09:50;;;;;;;27.50;11.93;;;;;;;;;;6320721;28;20135;-60
2023/03/07 09:12:50;;;;;;;27.13;12.30;;;;;;;;;;6323023;28;20062;-61
2023/03/07 09:15:51;;;;;;;26.80;12.35;;;;;;;;;;6324663;28;20076;-63
2023/03/07 09:18:52;;;;;;;28.05;11.57;;;;;;;;;;6322589;28;20055;-62
2023/03/07 09:21:53;;;;;;;27.45;11.90;;;;;;;;;;6324601;28;20070;-60
2023/03/07 09:24:53;;;;;;;26.65;12.55;;;;;;;;;;6322909;28;20043;-60
2023/03/07 09:27:54;;;;;;;24.42;10.73;;;;;;;;;;6322687;28;20074;-60
2023/03/07 09:30:54;;;;;;;25.85;10.63;;;;;;;;;;6322191;28;20044;-60
2023/03/07 09:33:55;;;;;;;24.98;10.73;;;;;;;;;;6323166;28;20157;-60
2023/03/07 09:36:56;;;;;;;26.75;11.52;;;;;;;;;;6322992;28;20464;-60
2023/03/07 09:39:56;;;;;;;25.23;11.27;;;;;;;;;;6322950;28;20668;-60
2023/03/07 09:43:01;;;;;;;24.83;11.55;;;;;;;;;;6322124;28;20036;-60
2023/03/07 09:46:13;;;;;;;25.98;11.13;;;;;;;;;;6322610;28;20142;-60
2023/03/07 09:49:18;;;;;;;22.08;10.35;;;;;;;;;;6319060;28;20054;-60
2023/03/07 09:52:24;;;;;;;25.60;10.60;;;;;;;;;;6320422;28;20499;-60
2023/03/07 09:55:27;;;;;;;27.08;10.63;;;;;;;;;;6322721;28;20040;-61
2023/03/07 09:58:28;;;;;;;20.83;9.57;;;;;;;;;;6320015;28;20040;-60
2023/03/07 10:01:32;;;;;;;22.88;9.63;;;;;;;;;;6323034;28;20062;-60
2023/03/07 10:04:42;;;;;;;28.85;12.32;;;;;;;;;;6320848;28;20052;-60
2023/03/07 10:07:43;;;;;;;23.65;11.50;;;;;;;;;;6321671;28;20139;-60
2023/03/07 10:11:10;;;;;;;21.30;10.30;;;;;;;;;;6318141;28;20048;-60
2023/03/07 10:14:30;;;;;;;34.92;15.30;;;;;;;;;;6319304;28;20059;-60
2023/03/07 10:17:45;;;;;;;23.30;10.15;;;;;;;;;;6318333;28;20056;-60
2023/03/07 10:21:12;;;;;;;19.52;8.27;;;;;;;;;;6320313;28;20110;-60
2023/03/07 10:24:27;;;;;;;23.88;10.38;;;;;;;;;;6321312;28;20043;-60
2023/03/07 10:27:29;;;;;;;23.83;9.85;;;;;;;;;;6319171;28;20056;-60
2023/03/07 10:30:31;;;;;;;25.83;11.13;;;;;;;;;;6320319;28;20056;-60
2023/03/07 10:33:32;;;;;;;17.65;8.60;;;;;;;;;;6321373;28;20048;-60
2023/03/07 10:36:40;;;;;;;18.33;8.63;;;;;;;;;;6320088;28;20476;-61
2023/03/07 10:39:52;;;;;;;19.92;9.35;;;;;;;;;;6320220;28;20473;-60
2023/03/07 10:42:55;;;;;;;20.75;8.75;;;;;;;;;;6320117;28;20089;-60
2023/03/07 10:46:10;;;;;;;18.90;8.77;;;;;;;;;;6319513;28;20097;-60
2023/03/07 10:49:19;;;;;;;22.73;8.82;;;;;;;;;;6321341;28;20093;-61
2023/03/07 10:52:34;;;;;;;18.20;7.55;;;;;;;;;;6320564;28;20414;-60
2023/03/07 10:55:43;;;;;;;20.02;8.25;;;;;;;;;;6321279;28;20049;-60
2023/03/07 10:59:03;;;;;;;18.35;9.10;;;;;;;;;;6320675;28;20044;-60
2023/03/07 11:02:29;;;;;;;20.13;8.75;;;;;;;;;;6319751;28;20093;-60
2023/03/07 11:05:32;;;;;;;19.52;8.25;;;;;;;;;;6321676;28;20158;-60
2023/03/07 11:08:34;;;;;;;27.80;13.82;;;;;;;;;;6323253;28;20032;-61
2023/03/07 11:11:35;;;;;;;;;;;;;;;;;;6320773;28;20431;-60
2023/03/07 11:14:47;;;;;;;26.38;12.63;;;;;;;;;;6317392;28;19919;-60
2023/03/07 11:17:48;;;;;;;23.45;10.05;;;;;;;;;;6328237;28;20524;-60
2023/03/07 11:20:49;;;;;;;19.17;9.73;;;;;;;;;;6320283;28;20399;-61
2023/03/07 11:24:01;;;;;;;20.77;9.80;;;;;;;;;;6317889;28;20044;-59
2023/03/07 11:27:02;;;;;;;17.45;8.80;;;;;;;;;;6319289;28;20043;-60
2023/03/07 11:30:20;;;;;;;18.17;8.68;;;;;;;;;;6319901;28;20043;-61
2023/03/07 11:33:24;;;;;;;20.02;9.00;;;;;;;;;;6319381;28;20036;-60
2023/03/07 11:36:32;;;;;;;20.00;8.98;;;;;;;;;;6317543;28;20079;-62
2023/03/07 11:39:47;;;;;;;18.58;8.60;;;;;;;;;;6319061;28;20044;-61
2023/03/07 11:42:57;;;;;;;21.08;8.45;;;;;;;;;;6317294;28;21111;-60
2023/03/07 11:46:16;;;;;;;15.27;7.70;;;;;;;;;;6316945;28;20048;-60
2023/03/07 11:49:19;;;;;;;18.27;7.90;;;;;;;;;;6318356;28;20422;-60
2023/03/07 11:52:41;;;;;;;19.92;7.93;;;;;;;;;;6317013;28;20048;-60
2023/03/07 11:55:51;;;;;;;19.63;9.30;;;;;;;;;;6317722;28;20138;-60
2023/03/07 11:59:13;;;;;;;22.27;9.68;;;;;;;;;;6313952;28;20043;-60
2023/03/07 12:02:42;;;;;;;22.38;10.90;;;;;;;;;;6317297;28;20051;-61
2023/03/07 12:05:42;;;;;;;23.75;12.32;;;;;;;;;;6321166;28;20486;-61
2023/03/07 12:09:01;;;;;;;27.10;14.57;;;;;;;;;;6319524;28;20036;-60
2023/03/07 12:12:16;;;;;;;21.65;9.32;;;;;;;;;;6318567;28;20397;-60
2023/03/07 12:15:35;;;;;;;26.35;10.10;;;;;;;;;;6319930;28;20131;-61
2023/03/07 12:18:46;;;;;;;17.95;9.15;;;;;;;;;;6317414;28;20089;-61
2023/03/07 12:22:12;;;;;;;28.45;14.77;;;;;;;;;;6318718;28;20052;-60
2023/03/07 12:25:17;;;;;;;18.20;8.90;;;;;;;;;;6317305;28;20473;-60
2023/03/07 12:28:20;;;;;;;21.58;10.93;;;;;;;;;;6322287;28;20085;-59
2023/03/07 12:31:26;;;;;;;18.48;10.05;;;;;;;;;;6316475;28;20048;-60
2023/03/07 12:34:37;;;;;;;19.42;9.23;;;;;;;;;;6316324;28;20506;-60
2023/03/07 12:37:54;;;;;;;21.02;10.00;;;;;;;;;;6319992;28;20376;-60
2023/03/07 12:41:04;;;;;;;24.05;10.05;;;;;;;;;;6320089;28;20448;-61
2023/03/07 12:44:12;;;;;;;22.52;10.00;;;;;;;;;;6318806;28;20052;-60
2023/03/07 12:47:44;;;;;;;19.98;10.25;;;;;;;;;;6318373;28;20039;-61
2023/03/07 12:50:47;;;;;;;21.70;9.65;;;;;;;;;;6305144;28;20048;-60
2023/03/07 12:54:25;;;;;;;23.77;11.15;;;;;;;;;;6318937;28;20048;-61
2023/03/07 12:57:31;;;;;;;23.52;10.40;;;;;;;;;;6317611;28;20051;-60
2023/03/07 13:00:38;;;;;;;22.90;11.68;;;;;;;;;;6317514;28;20054;-61
2023/03/07 13:03:57;;;;;;;24.55;11.27;;;;;;;;;;6319727;28;20047;-61
2023/03/07 13:07:06;;;;;;;23.88;10.80;;;;;;;;;;6317679;28;20036;-61
2023/03/07 13:10:09;;;;;;;23.50;11.10;;;;;;;;;;6319061;28;20075;-60
2023/03/07 13:13:28;;;;;;;;;;;;;;;;;;6325086;28;20040;-60
2023/03/07 13:16:35;;;;;;;21.30;9.50;;;;;;;;;;6320728;28;20089;-60
2023/03/07 13:19:35;;;;;;;22.08;10.00;;;;;;;;;;6316302;28;20048;-60
2023/03/07 13:22:36;;;;;;;20.98;9.63;;;;;;;;;;6328908;28;20073;-60
2023/03/07 13:25:54;;;;;;;20.60;9.38;;;;;;;;;;6320479;28;20319;-61
2023/03/07 13:28:56;;;;;;;19.50;8.82;;;;;;;;;;6323615;28;20080;-61
2023/03/07 13:31:56;;;;;;;20.42;8.98;;;;;;;;;;6323323;28;20701;-60
2023/03/07 13:34:57;;;;;;;18.58;9.25;;;;;;;;;;6322442;28;20048;-61
2023/03/07 13:38:12;;;;;;;36.85;16.27;;;;;;;;;;6319823;28;20043;-61
2023/03/07 13:41:43;;;;;;;24.25;11.75;;;;;;;;;;6323438;28;20038;-60
2023/03/07 13:44:43;;;;;;;25.00;12.77;;;;;;;;;;6320866;28;20556;-61
2023/03/07 13:47:44;;;;;;;21.13;10.85;;;;;;;;;;6322065;28;21264;-60
2023/03/07 13:50:45;;;;;;;19.10;9.35;;;;;;;;;;6324715;28;20486;-61
2023/03/07 13:53:49;;;;;;;21.08;10.32;;;;;;;;;;6321566;28;20039;-60
2023/03/07 13:56:50;;;;;;;24.42;12.73;;;;;;;;;;6321975;28;20075;-61
2023/03/07 13:59:51;;;;;;;23.05;10.45;;;;;;;;;;6321140;28;20043;-60
2023/03/07 14:02:52;;;;;;;39.50;16.40;;;;;;;;;;6323910;28;20044;-60
2023/03/07 14:05:57;;;;;;;27.10;11.20;;;;;;;;;;6323101;28;20037;-61
2023/03/07 14:08:59;;;;;;;19.95;8.10;;;;;;;;;;6320908;28;20039;-60
2023/03/07 14:12:17;;;;;;;52.03;18.35;;;;;;;;;;6320773;28;20044;-61
2023/03/07 14:15:26;;;;;;;21.42;11.02;;;;;;;;;;6320403;28;20624;-60
2023/03/07 14:18:49;;;;;;;19.52;9.15;;;;;;;;;;6319341;28;20047;-61
2023/03/07 14:21:55;;;;;;;17.98;9.27;;;;;;;;;;6312238;27;20052;-62
2023/03/07 14:25:18;;;;;;;20.23;8.98;;;;;;;;;;6315379;27;20052;-60
2023/03/07 14:28:25;;;;;;;18.05;9.07;;;;;;;;;;6311221;27;21027;-60
2023/03/07 14:31:36;;;;;;;21.23;10.10;;;;;;;;;;6309281;27;21932;-62
2023/03/07 14:34:39;;;;;;;21.52;10.43;;;;;;;;;;6312983;27;20054;-61
2023/03/07 14:37:40;;;;;;;;;;;;;;;;;;6313757;27;20471;-61
2023/03/07 14:40:53;;;;;;;21.85;9.75;;;;;;;;;;6312695;27;20584;-62
2023/03/07 14:44:29;;;;;;;22.95;9.80;;;;;;;;;;6314326;28;20044;-63
2023/03/07 14:47:55;;;;;;;22.75;12.18;;;;;;;;;;6312997;27;20059;-61
2023/03/07 14:51:04;;;;;;;26.77;14.95;;;;;;;;;;6315727;28;20076;-61
2023/03/07 14:54:12;;;;;;;22.42;10.15;;;;;;;;;;6311644;28;20496;-60
2023/03/07 14:57:30;;;;;;;18.88;9.70;;;;;;;;;;6317591;27;20056;-66
2023/03/07 15:00:32;;;;;;;18.83;10.15;;;;;;;;;;6313719;27;20056;-65
2023/03/07 15:03:33;;;;;;;20.30;9.98;;;;;;;;;;6312319;27;20401;-61
2023/03/07 15:06:41;;;;;;;21.25;10.20;;;;;;;;;;6316789;27;20055;-61
2023/03/07 15:09:42;;;;;;;19.33;9.88;;;;;;;;;;6319009;27;20054;-65
2023/03/07 15:12:47;;;;;;;21.70;9.65;;;;;;;;;;6311710;27;20714;-61
2023/03/07 15:15:56;;;;;;;24.83;11.48;;;;;;;;;;6317934;28;20043;-61
2023/03/07 15:19:16;;;;;;;20.52;10.40;;;;;;;;;;6318179;28;20032;-61
2023/03/07 15:22:28;;;;;;;21.80;9.75;;;;;;;;;;6314322;28;20039;-61
2023/03/07 15:25:30;;;;;;;19.92;9.70;;;;;;;;;;6322453;28;20048;-61
2023/03/07 15:28:34;;;;;;;19.80;9.30;;;;;;;;;;6314765;28;20043;-61
2023/03/07 15:31:54;;;;;;;20.55;9.43;;;;;;;;;;6316837;28;20537;-61
2023/03/07 15:35:17;;;;;;;23.25;10.40;;;;;;;;;;6316219;28;20047;-60
2023/03/07 15:38:22;;;;;;;20.15;9.73;;;;;;;;;;6318615;28;20144;-60
2023/03/07 15:41:30;;;;;;;23.15;11.48;;;;;;;;;;6314820;27;20033;-61
2023/03/07 15:44:31;;;;;;;21.45;10.52;;;;;;;;;;6315419;28;20036;-61
2023/03/07 15:47:33;;;;;;;22.88;10.40;;;;;;;;;;6313165;28;20159;-62
2023/03/07 15:50:33;;;;;;;25.30;12.63;;;;;;;;;;6313433;28;20092;-65
2023/03/07 15:53:39;;;;;;;30.05;15.25;;;;;;;;;;6312598;27;20044;-60
2023/03/07 15:56:41;;;;;;;31.65;19.20;;;;;;;;;;6320874;27;20120;-60
2023/03/07 15:59:49;;;;;;;48.60;21.80;;;;;;;;;;6319266;28;20051;-60
2023/03/07 16:02:50;;;;;;;36.75;17.38;;;;;;;;;;6312466;28;20055;-61
2023/03/07 16:05:51;;;;;;;54.30;26.70;;;;;;;;;;6310955;28;20051;-60
2023/03/07 16:08:51;;;;;;;82.38;32.85;;;;;;;;;;6310225;28;20051;-60
2023/03/07 16:11:52;;;;;;;68.32;23.27;;;;;;;;;;6311396;27;20822;-63
2023/03/07 16:14:54;;;;;;;58.75;20.95;;;;;;;;;;6317338;28;20053;-63
2023/03/07 16:17:55;;;;;;;101.10;43.92;;;;;;;;;;6318665;28;20092;-63
2023/03/07 16:20:56;;;;;;;54.05;21.33;;;;;;;;;;6315680;28;20348;-65
2023/03/07 16:23:57;;;;;;;45.63;18.70;;;;;;;;;;6313028;28;20631;-63
2023/03/07 16:26:57;;;;;;;61.83;23.77;;;;;;;;;;6318388;28;20048;-62
2023/03/07 16:29:58;;;;;;;43.97;20.02;;;;;;;;;;6316924;28;20457;-62
2023/03/07 16:32:59;;;;;;;44.08;18.85;;;;;;;;;;6310668;28;20193;-62
2023/03/07 16:36:00;;;;;;;38.67;17.98;;;;;;;;;;6316183;28;20056;-61
2023/03/07 16:39:00;;;;;;;34.15;16.40;;;;;;;;;;6318982;28;20986;-62
2023/03/07 16:42:01;;;;;;;34.65;15.10;;;;;;;;;;6314383;28;20067;-62
2023/03/07 16:45:04;;;;;;;37.42;15.68;;;;;;;;;;6320391;28;20380;-62
2023/03/07 16:48:11;;;;;;;35.35;15.18;;;;;;;;;;6319326;28;20057;-63
2023/03/07 16:51:20;;;;;;;32.53;15.35;;;;;;;;;;6314669;27;20047;-63
2023/03/07 16:54:21;;;;;;;30.00;13.95;;;;;;;;;;6316329;27;20065;-62
2023/03/07 16:57:22;;;;;;;36.70;15.82;;;;;;;;;;6342532;27;20051;-61
2023/03/07 17:00:24;;;;;;;34.53;15.95;;;;;;;;;;6339634;27;20054;-61
2023/03/07 17:03:28;;;;;;;34.30;16.65;;;;;;;;;;6333343;27;20086;-61
2023/03/07 17:06:29;;;;;;;33.58;15.82;;;;;;;;;;6342933;27;20043;-62
2023/03/07 17:09:29;;;;;;;35.17;15.77;;;;;;;;;;6341499;27;20047;-61
2023/03/07 17:12:30;;;;;;;29.83;15.30;;;;;;;;;;6329799;27;20095;-61
2023/03/07 17:15:31;;;;;;;31.77;15.90;;;;;;;;;;6315900;27;20055;-62
2023/03/07 17:18:32;;;;;;;33.17;16.90;;;;;;;;;;6317354;28;20055;-61
2023/03/07 17:21:33;;;;;;;30.75;15.30;;;;;;;;;;6313516;28;20513;-61
2023/03/07 17:24:33;;;;;;;31.38;15.32;;;;;;;;;;6320957;28;20072;-61
2023/03/07 17:27:41;;;;;;;32.10;16.05;;;;;;;;;;6319404;28;20504;-57
2023/03/07 17:30:44;;;;;;;32.88;15.52;;;;;;;;;;6319471;27;20561;-61
2023/03/07 17:33:45;;;;;;;34.00;15.85;;;;;;;;;;6312781;27;20170;-60
2023/03/07 17:36:46;;;;;;;34.15;15.55;;;;;;;;;;6315066;27;20048;-60
2023/03/07 17:39:47;;;;;;;36.17;16.52;;;;;;;;;;6317176;28;20074;-60
2023/03/07 17:42:50;;;;;;;35.40;16.33;;;;;;;;;;6318766;28;20054;-60
2023/03/07 17:45:50;;;;;;;36.75;16.95;;;;;;;;;;6311848;27;20051;-60
2023/03/07 17:48:52;;;;;;;32.30;15.90;;;;;;;;;;6313258;27;21321;-63
2023/03/07 17:51:52;;;;;;;33.65;16.23;;;;;;;;;;6313179;27;20052;-60
2023/03/07 17:54:53;;;;;;;38.22;17.17;;;;;;;;;;6312978;28;20486;-60
2023/03/07 17:57:53;;;;;;;40.78;17.55;;;;;;;;;;6312056;27;20048;-59